createdAt,value
2022-10-28T00:00:12.297Z,15.18
2022-10-28T00:02:40.919Z,15.18
2022-10-28T00:05:08.381Z,15.12
2022-10-28T00:07:35.620Z,15.10
2022-10-28T00:10:02.777Z,15.13
2022-10-28T00:12:29.884Z,15.05
2022-10-28T00:14:57.093Z,15.08
2022-10-28T00:19:56.296Z,14.93
2022-10-28T00:22:23.892Z,14.78
2022-10-28T00:24:50.928Z,14.77
2022-10-28T00:27:18.053Z,14.85
2022-10-28T00:29:45.183Z,14.89
2022-10-28T00:32:12.318Z,14.82
2022-10-28T00:34:39.452Z,14.80
2022-10-28T00:37:06.506Z,14.89
2022-10-28T00:39:33.665Z,14.96
2022-10-28T00:42:03.952Z,14.98
2022-10-28T00:44:49.593Z,15.00
2022-10-28T00:47:22.688Z,15.04
2022-10-28T00:49:51.651Z,15.10
2022-10-28T00:52:20.734Z,15.11
2022-10-28T00:54:48.874Z,15.12
2022-10-28T00:57:17.134Z,15.15
2022-10-28T00:59:46.808Z,15.22
2022-10-28T01:02:14.297Z,15.28
2022-10-28T01:04:42.498Z,15.25
2022-10-28T01:07:10.672Z,15.25
2022-10-28T01:09:38.780Z,15.25
2022-10-28T01:12:08.886Z,15.20
2022-10-28T01:14:39.001Z,15.21
2022-10-28T01:17:09.052Z,15.21
2022-10-28T01:19:42.114Z,15.30
2022-10-28T01:22:11.983Z,15.32
2022-10-28T01:24:45.058Z,15.33
2022-10-28T01:27:12.125Z,15.29
2022-10-28T01:29:51.390Z,15.28
2022-10-28T01:32:27.748Z,15.32
2022-10-28T01:34:57.896Z,15.25
2022-10-28T01:37:24.997Z,15.24
2022-10-28T01:39:52.170Z,15.24
2022-10-28T01:42:19.292Z,15.22
2022-10-28T01:44:46.358Z,15.07
2022-10-28T01:47:20.132Z,14.67
2022-10-28T01:49:55.349Z,14.33
2022-10-28T01:52:25.804Z,14.35
2022-10-28T01:55:03.836Z,14.25
2022-10-28T01:57:31.856Z,14.21
2022-10-28T01:59:59.889Z,14.12
2022-10-28T02:02:30.548Z,14.03
2022-10-28T02:05:05.005Z,13.89
2022-10-28T02:07:32.379Z,13.80
2022-10-28T02:10:04.069Z,13.80
2022-10-28T02:12:32.811Z,13.72
2022-10-28T02:15:17.661Z,13.70
2022-10-28T02:18:03.620Z,13.86
2022-10-28T02:20:36.657Z,14.03
2022-10-28T02:23:15.819Z,14.04
2022-10-28T02:25:48.815Z,13.82
2022-10-28T02:28:19.424Z,13.76
2022-10-28T02:30:50.839Z,13.93
2022-10-28T02:33:26.476Z,14.04
2022-10-28T02:35:59.666Z,14.11
2022-10-28T02:38:30.222Z,14.16
2022-10-28T02:41:01.147Z,14.20
2022-10-28T02:43:30.196Z,14.22
2022-10-28T02:45:59.783Z,14.24
2022-10-28T02:48:31.471Z,14.24
2022-10-28T02:51:03.007Z,14.15
2022-10-28T02:53:32.500Z,13.93
2022-10-28T02:56:01.165Z,14.07
2022-10-28T02:58:28.383Z,14.12
2022-10-28T03:00:55.578Z,13.96
2022-10-28T03:03:22.862Z,14.04
2022-10-28T03:05:50.029Z,14.00
2022-10-28T03:08:20.305Z,14.04
2022-10-28T03:10:47.524Z,14.14
2022-10-28T03:13:14.706Z,14.17
2022-10-28T03:15:41.937Z,14.19
2022-10-28T03:18:09.073Z,14.22
2022-10-28T03:20:36.184Z,14.29
2022-10-28T03:23:03.393Z,14.32
2022-10-28T03:25:30.590Z,14.39
2022-10-28T03:27:57.897Z,14.45
2022-10-28T03:30:25.128Z,14.49
2022-10-28T03:32:52.660Z,14.60
2022-10-28T03:35:20.200Z,14.73
2022-10-28T03:37:47.391Z,14.68
2022-10-28T03:40:14.724Z,14.66
2022-10-28T03:42:41.970Z,14.63
2022-10-28T03:45:09.626Z,14.58
2022-10-28T03:47:37.122Z,14.51
2022-10-28T03:50:04.568Z,14.46
2022-10-28T03:52:31.718Z,14.43
2022-10-28T03:54:58.879Z,14.43
2022-10-28T03:57:26.095Z,14.42
2022-10-28T03:59:53.332Z,14.42
2022-10-28T04:02:20.593Z,14.41
2022-10-28T04:04:47.744Z,14.40
2022-10-28T04:07:14.942Z,14.38
2022-10-28T04:09:42.785Z,14.22
2022-10-28T04:12:10.813Z,14.07
2022-10-28T04:14:38.032Z,13.85
2022-10-28T04:17:05.155Z,13.89
2022-10-28T04:19:32.291Z,13.94
2022-10-28T04:21:59.431Z,13.86
2022-10-28T04:24:26.605Z,13.80
2022-10-28T04:26:53.692Z,13.86
2022-10-28T04:29:20.773Z,13.77
2022-10-28T04:31:51.355Z,13.75
2022-10-28T04:34:19.526Z,13.79
2022-10-28T04:36:46.596Z,13.74
2022-10-28T04:39:13.769Z,13.78
2022-10-28T04:41:40.852Z,13.83
2022-10-28T04:44:07.940Z,13.82
2022-10-28T04:46:35.043Z,13.81
2022-10-28T04:49:02.182Z,13.82
2022-10-28T04:51:29.253Z,13.89
2022-10-28T04:53:56.321Z,13.94
2022-10-28T04:56:23.572Z,13.96
2022-10-28T04:58:50.682Z,13.93
2022-10-28T05:01:17.934Z,13.92
2022-10-28T05:03:45.267Z,13.91
2022-10-28T05:06:12.366Z,13.90
2022-10-28T05:08:39.477Z,13.89
2022-10-28T05:11:06.643Z,13.87
2022-10-28T05:13:33.837Z,13.84
2022-10-28T05:16:01.014Z,13.86
2022-10-28T05:18:28.156Z,13.84
2022-10-28T05:20:55.349Z,13.87
2022-10-28T05:23:51.284Z,13.78
2022-10-28T05:26:18.466Z,13.66
2022-10-28T05:28:49.010Z,13.70
2022-10-28T05:31:16.294Z,13.78
2022-10-28T05:33:43.505Z,13.82
2022-10-28T05:36:10.964Z,13.89
2022-10-28T05:38:39.951Z,13.89
2022-10-28T05:41:07.129Z,13.94
2022-10-28T05:43:34.298Z,13.96
2022-10-28T05:46:02.917Z,13.98
2022-10-28T05:48:30.068Z,14.01
2022-10-28T05:50:57.241Z,13.99
2022-10-28T05:53:24.411Z,14.01
2022-10-28T05:55:51.583Z,14.02
2022-10-28T05:58:18.793Z,14.01
2022-10-28T06:00:45.990Z,14.00
2022-10-28T06:03:13.164Z,13.96
2022-10-28T06:05:42.146Z,14.01
2022-10-28T06:08:10.512Z,14.02
2022-10-28T06:10:38.151Z,14.02
2022-10-28T06:13:04.024Z,14.03
2022-10-28T06:15:31.184Z,14.04
2022-10-28T06:17:58.335Z,14.04
2022-10-28T06:20:25.616Z,14.06
2022-10-28T06:22:55.290Z,14.11
2022-10-28T06:25:24.124Z,14.13
2022-10-28T06:27:58.465Z,14.13
2022-10-28T06:30:26.297Z,14.13
2022-10-28T06:32:56.630Z,14.13
2022-10-28T06:35:23.790Z,14.13
2022-10-28T06:37:55.105Z,14.16
2022-10-28T06:40:23.726Z,14.17
2022-10-28T06:42:58.001Z,14.02
2022-10-28T06:45:26.015Z,13.86
2022-10-28T06:47:55.905Z,13.66
2022-10-28T06:50:23.062Z,13.64
2022-10-28T06:52:50.174Z,13.70
2022-10-28T06:55:17.336Z,13.72
2022-10-28T06:57:44.453Z,13.84
2022-10-28T07:00:11.898Z,13.98
2022-10-28T07:02:42.778Z,14.14
2022-10-28T07:05:12.341Z,14.32
2022-10-28T07:07:39.442Z,14.46
2022-10-28T07:10:06.624Z,14.55
2022-10-28T07:12:34.009Z,14.62
2022-10-28T07:15:01.049Z,14.70
2022-10-28T07:17:28.290Z,14.72
2022-10-28T07:19:55.395Z,14.76
2022-10-28T07:22:25.479Z,14.86
2022-10-28T07:24:52.972Z,14.83
2022-10-28T07:27:20.184Z,14.83
2022-10-28T07:29:47.275Z,14.94
2022-10-28T07:32:15.296Z,15.04
2022-10-28T07:34:42.492Z,15.19
2022-10-28T07:37:11.500Z,15.33
2022-10-28T07:39:38.792Z,15.37
2022-10-28T07:42:05.918Z,15.41
2022-10-28T07:44:33.080Z,15.51
2022-10-28T07:47:00.172Z,15.61
2022-10-28T07:49:27.252Z,15.66
2022-10-28T07:51:54.474Z,15.78
2022-10-28T07:54:21.740Z,16.08
2022-10-28T07:56:48.912Z,17.19
2022-10-28T07:59:16.266Z,19.06
2022-10-28T08:01:43.373Z,20.97
2022-10-28T08:04:10.531Z,22.40
2022-10-28T08:06:37.707Z,22.24
2022-10-28T08:09:04.991Z,21.71
2022-10-28T08:11:32.113Z,22.27
2022-10-28T08:13:59.265Z,22.78
2022-10-28T08:16:29.033Z,22.11
2022-10-28T08:18:56.907Z,22.26
2022-10-28T08:21:24.917Z,23.52
2022-10-28T08:23:53.155Z,24.64
2022-10-28T08:26:20.728Z,24.56
2022-10-28T08:28:47.837Z,24.76
2022-10-28T08:31:15.026Z,25.30
2022-10-28T08:33:44.431Z,25.22
2022-10-28T08:36:12.753Z,23.89
2022-10-28T08:38:47.868Z,22.27
2022-10-28T08:41:17.820Z,21.87
2022-10-28T08:44:03.374Z,21.52
2022-10-28T08:46:39.432Z,21.20
2022-10-28T08:49:12.163Z,20.85
2022-10-28T08:51:47.352Z,20.58
2022-10-28T08:54:20.514Z,20.54
2022-10-28T08:56:48.912Z,20.39
2022-10-28T08:59:25.352Z,20.36
2022-10-28T09:02:11.771Z,20.08
2022-10-28T09:04:43.646Z,20.16
2022-10-28T09:07:31.017Z,20.12
2022-10-28T09:09:58.163Z,20.05
2022-10-28T09:13:00.926Z,19.92
2022-10-28T09:15:28.042Z,19.84
2022-10-28T09:17:58.288Z,19.92
2022-10-28T09:20:48.879Z,19.97
2022-10-28T09:23:33.765Z,20.02
2022-10-28T09:26:09.755Z,19.99
2022-10-28T09:28:39.635Z,19.89
2022-10-28T09:31:12.644Z,19.84
2022-10-28T09:33:51.706Z,19.86
2022-10-28T09:36:23.546Z,19.92
2022-10-28T09:38:53.328Z,19.88
2022-10-28T09:41:25.801Z,19.79
2022-10-28T09:43:52.941Z,19.86
2022-10-28T09:46:22.082Z,19.93
2022-10-28T09:48:58.195Z,19.95
2022-10-28T09:51:28.260Z,19.98
2022-10-28T09:53:59.417Z,19.99
2022-10-28T09:56:27.619Z,20.04
2022-10-28T09:58:55.909Z,20.11
2022-10-28T10:01:23.070Z,20.16
2022-10-28T10:03:51.177Z,20.21
2022-10-28T10:06:20.642Z,20.28
2022-10-28T10:08:48.267Z,20.36
2022-10-28T10:11:18.143Z,20.39
2022-10-28T10:13:45.493Z,20.37
2022-10-28T10:16:23.955Z,20.43
2022-10-28T10:18:53.172Z,20.45
2022-10-28T10:21:40.614Z,20.55
2022-10-28T10:24:27.972Z,20.61
2022-10-28T10:26:55.300Z,20.70
2022-10-28T10:29:22.903Z,20.69
2022-10-28T10:32:03.809Z,20.71
2022-10-28T10:34:31.200Z,20.74
2022-10-28T10:36:58.396Z,20.76
2022-10-28T10:39:33.769Z,20.80
2022-10-28T10:42:00.859Z,20.82
2022-10-28T10:44:32.576Z,20.83
2022-10-28T10:47:03.485Z,20.86
2022-10-28T10:49:35.200Z,20.91
2022-10-28T10:52:10.161Z,20.93
2022-10-28T10:54:37.734Z,20.95
2022-10-28T10:57:22.357Z,21.05
2022-10-28T10:59:51.110Z,21.06
2022-10-28T11:02:21.142Z,21.05
2022-10-28T11:04:53.459Z,21.03
2022-10-28T11:07:20.757Z,21.07
2022-10-28T11:09:49.409Z,21.11
2022-10-28T11:12:16.606Z,21.17
2022-10-28T11:14:53.969Z,21.23
2022-10-28T11:17:26.132Z,21.25
2022-10-28T11:20:00.716Z,21.26
2022-10-28T11:22:36.898Z,21.30
2022-10-28T11:25:10.240Z,21.47
2022-10-28T11:27:51.729Z,21.49
2022-10-28T11:30:27.750Z,21.49
2022-10-28T11:33:30.378Z,21.52
2022-10-28T11:36:10.737Z,21.53
2022-10-28T11:38:45.825Z,21.51
2022-10-28T11:41:16.073Z,21.47
2022-10-28T11:43:47.724Z,21.35
2022-10-28T11:46:35.717Z,21.40
2022-10-28T11:49:42.460Z,21.67
2022-10-28T11:52:30.778Z,21.76
2022-10-28T11:54:57.993Z,21.89
2022-10-28T11:57:33.201Z,21.86
2022-10-28T12:00:14.887Z,21.86
2022-10-28T12:02:50.716Z,21.90
2022-10-28T12:05:24.259Z,21.95
2022-10-28T12:08:03.266Z,21.96
2022-10-28T12:10:54.342Z,21.94
2022-10-28T12:13:28.765Z,22.13
2022-10-28T12:16:01.948Z,22.14
2022-10-28T12:18:47.485Z,22.19
2022-10-28T12:21:20.826Z,22.18
2022-10-28T12:23:48.966Z,22.07
2022-10-28T12:26:18.090Z,22.04
2022-10-28T12:28:47.632Z,22.14
2022-10-28T12:31:30.114Z,22.24
2022-10-28T12:33:59.155Z,22.30
2022-10-28T12:36:45.141Z,22.42
2022-10-28T12:39:25.509Z,22.44
2022-10-28T12:42:11.165Z,22.44
2022-10-28T12:44:39.128Z,22.36
2022-10-28T12:47:16.594Z,22.33
2022-10-28T12:49:46.649Z,22.32
2022-10-28T12:52:21.643Z,22.28
2022-10-28T12:55:07.317Z,22.24
2022-10-28T12:57:35.194Z,22.21
2022-10-28T13:00:20.859Z,22.23
2022-10-28T13:03:07.871Z,22.52
2022-10-28T13:05:50.199Z,22.51
2022-10-28T13:08:20.481Z,22.52
2022-10-28T13:10:53.595Z,22.45
2022-10-28T13:13:39.204Z,22.38
2022-10-28T13:16:15.155Z,22.34
2022-10-28T13:18:54.348Z,22.31
2022-10-28T13:21:27.492Z,22.40
2022-10-28T13:23:58.539Z,22.36
2022-10-28T13:26:31.267Z,22.28
2022-10-28T13:29:00.406Z,22.20
2022-10-28T13:31:41.002Z,22.16
2022-10-28T13:34:09.098Z,22.17
2022-10-28T13:36:38.675Z,22.13
2022-10-28T13:39:07.817Z,22.16
2022-10-28T13:41:40.971Z,22.12
2022-10-28T13:44:10.606Z,22.09
2022-10-28T13:46:56.456Z,22.03
2022-10-28T13:49:55.729Z,22.00
2022-10-28T13:52:22.958Z,21.90
2022-10-28T13:54:50.011Z,21.84
2022-10-28T13:57:26.410Z,21.77
2022-10-28T13:59:58.293Z,21.73
2022-10-28T14:02:46.314Z,21.65
2022-10-28T14:05:15.284Z,21.64
2022-10-28T14:07:55.077Z,21.60
2022-10-28T14:10:24.115Z,21.58
2022-10-28T14:12:53.301Z,21.59
2022-10-28T14:15:25.502Z,21.61
2022-10-28T14:18:37.252Z,21.62
2022-10-28T14:21:01.666Z,21.60
2022-10-28T14:23:29.028Z,21.59
2022-10-28T14:25:56.332Z,21.55
2022-10-28T14:28:29.809Z,21.56
2022-10-28T14:31:12.393Z,21.56
2022-10-28T14:33:43.049Z,21.58
2022-10-28T14:36:19.530Z,21.53
2022-10-28T14:38:46.779Z,21.51
2022-10-28T14:41:18.482Z,21.47
2022-10-28T14:44:09.182Z,21.42
2022-10-28T14:46:36.412Z,21.37
2022-10-28T14:49:04.194Z,21.36
2022-10-28T14:51:39.476Z,21.33
2022-10-28T14:54:09.281Z,21.27
2022-10-28T14:56:36.626Z,21.26
2022-10-28T14:59:21.683Z,21.24
2022-10-28T15:02:01.114Z,21.21
2022-10-28T15:04:29.011Z,21.20
2022-10-28T15:06:56.638Z,21.16
2022-10-28T15:09:25.638Z,21.14
2022-10-28T15:12:05.637Z,21.12
2022-10-28T15:14:40.384Z,21.12
2022-10-28T15:17:26.912Z,21.12
2022-10-28T15:19:55.558Z,21.09
2022-10-28T15:22:28.109Z,21.05
2022-10-28T15:24:57.083Z,21.04
2022-10-28T15:27:25.681Z,21.00
2022-10-28T15:29:53.091Z,20.99
2022-10-28T15:32:20.173Z,20.97
2022-10-28T15:34:47.753Z,20.94
2022-10-28T15:37:41.155Z,20.91
2022-10-28T15:40:18.425Z,20.89
2022-10-28T15:42:49.596Z,20.83
2022-10-28T15:45:18.666Z,20.79
2022-10-28T15:47:46.669Z,20.75
2022-10-28T15:50:16.559Z,20.72
2022-10-28T15:52:44.584Z,20.68
2022-10-28T15:55:41.090Z,20.64
2022-10-28T15:58:19.242Z,20.57
2022-10-28T16:00:54.257Z,20.53
2022-10-28T16:03:25.457Z,20.48
2022-10-28T16:05:54.334Z,20.40
2022-10-28T16:08:23.380Z,20.31
2022-10-28T16:10:50.604Z,20.24
2022-10-28T16:13:23.571Z,20.17
2022-10-28T16:16:19.956Z,20.11
2022-10-28T16:18:49.542Z,20.07
2022-10-28T16:21:20.647Z,20.03
2022-10-28T16:23:48.987Z,20.01
2022-10-28T16:26:16.191Z,19.97
2022-10-28T16:28:45.229Z,19.97
2022-10-28T16:31:15.194Z,19.95
2022-10-28T16:33:42.692Z,19.92
2022-10-28T16:36:09.903Z,19.87
2022-10-28T16:38:36.969Z,19.83
2022-10-28T16:41:05.118Z,19.77
2022-10-28T16:43:32.452Z,19.71
2022-10-28T16:46:00.338Z,19.70
2022-10-28T16:48:29.042Z,19.67
2022-10-28T16:51:00.688Z,19.60
2022-10-28T16:53:27.886Z,19.52
2022-10-28T16:56:00.826Z,19.50
2022-10-28T16:58:28.688Z,19.46
2022-10-28T17:00:56.654Z,19.35
2022-10-28T17:03:23.847Z,19.31
2022-10-28T17:05:51.250Z,19.30
2022-10-28T17:08:31.044Z,19.27
2022-10-28T17:11:04.749Z,19.20
2022-10-28T17:13:31.867Z,19.21
2022-10-28T17:15:59.007Z,19.20
2022-10-28T17:18:26.188Z,19.17
2022-10-28T17:21:02.871Z,19.10
2022-10-28T17:23:30.391Z,19.06
2022-10-28T17:25:58.184Z,19.04
2022-10-28T17:28:25.335Z,19.05
2022-10-28T17:30:52.664Z,19.03
2022-10-28T17:33:19.766Z,19.00
2022-10-28T17:35:46.988Z,18.98
2022-10-28T17:38:14.156Z,19.00
2022-10-28T17:40:41.385Z,18.97
2022-10-28T17:43:08.476Z,18.92
2022-10-28T17:45:35.631Z,18.87
2022-10-28T17:48:02.785Z,18.83
2022-10-28T17:50:29.973Z,18.79
2022-10-28T17:52:57.703Z,18.76
2022-10-28T17:55:25.049Z,18.70
2022-10-28T17:57:52.476Z,18.48
2022-10-28T18:00:20.062Z,18.37
2022-10-28T18:02:47.329Z,18.39
2022-10-28T18:05:14.764Z,18.39
2022-10-28T18:07:42.348Z,18.34
2022-10-28T18:10:10.127Z,18.18
2022-10-28T18:12:37.686Z,18.19
2022-10-28T18:15:05.477Z,18.13
2022-10-28T18:17:32.736Z,18.06
2022-10-28T18:20:01.907Z,18.06
2022-10-28T18:22:29.086Z,18.08
2022-10-28T18:24:56.728Z,18.03
2022-10-28T18:27:24.016Z,17.98
2022-10-28T18:29:51.345Z,18.00
2022-10-28T18:32:18.537Z,17.98
2022-10-28T18:34:45.826Z,17.95
2022-10-28T18:37:13.263Z,17.94
2022-10-28T18:39:40.662Z,17.92
2022-10-28T18:42:09.681Z,17.88
2022-10-28T18:44:39.284Z,17.84
2022-10-28T18:47:06.661Z,17.79
2022-10-28T18:49:33.905Z,17.71
2022-10-28T18:52:01.150Z,17.65
2022-10-28T18:54:28.511Z,17.61
2022-10-28T18:56:57.679Z,17.57
2022-10-28T18:59:25.086Z,17.54
2022-10-28T19:01:52.342Z,17.54
2022-10-28T19:04:19.639Z,17.38
2022-10-28T19:06:46.882Z,17.40
2022-10-28T19:09:14.109Z,17.40
2022-10-28T19:11:41.338Z,17.40
2022-10-28T19:14:09.881Z,17.37
2022-10-28T19:16:37.071Z,17.33
2022-10-28T19:19:04.795Z,17.31
2022-10-28T19:21:32.061Z,17.26
2022-10-28T19:23:59.306Z,17.24
2022-10-28T19:26:26.645Z,17.24
2022-10-28T19:28:54.044Z,17.26
2022-10-28T19:31:25.146Z,17.30
2022-10-28T19:33:53.361Z,17.23
2022-10-28T19:36:21.918Z,17.22
2022-10-28T19:38:49.735Z,17.27
2022-10-28T19:41:18.170Z,17.27
2022-10-28T19:43:45.557Z,17.26
2022-10-28T19:46:14.226Z,17.14
2022-10-28T19:48:42.520Z,17.00
2022-10-28T19:51:12.675Z,16.95
2022-10-28T19:53:39.896Z,16.73
2022-10-28T19:56:07.277Z,16.35
2022-10-28T19:58:35.044Z,16.36
2022-10-28T20:01:04.000Z,16.44
2022-10-28T20:03:34.546Z,16.50
2022-10-28T20:06:21.999Z,16.52
2022-10-28T20:08:49.630Z,16.50
2022-10-28T20:11:21.389Z,16.50
2022-10-28T20:13:56.291Z,16.49
2022-10-28T20:16:24.107Z,16.34
2022-10-28T20:18:51.431Z,16.31
2022-10-28T20:21:19.571Z,16.36
2022-10-28T20:23:49.370Z,16.39
2022-10-28T20:26:16.795Z,16.37
2022-10-28T20:28:44.010Z,16.22
2022-10-28T20:31:12.546Z,16.05
2022-10-28T20:33:40.767Z,16.02
2022-10-28T20:36:20.747Z,16.07
2022-10-28T20:38:47.896Z,16.14
2022-10-28T20:41:16.291Z,16.00
2022-10-28T20:43:43.479Z,15.92
2022-10-28T20:46:16.147Z,15.97
2022-10-28T20:48:46.473Z,16.11
2022-10-28T20:51:13.721Z,16.29
2022-10-28T20:53:41.218Z,16.31
2022-10-28T20:56:08.931Z,16.27
2022-10-28T20:58:36.119Z,16.17
2022-10-28T21:01:04.510Z,16.14
2022-10-28T21:03:31.736Z,16.01
2022-10-28T21:05:59.140Z,15.85
2022-10-28T21:08:26.407Z,15.89
2022-10-28T21:10:53.628Z,15.87
2022-10-28T21:13:20.890Z,15.86
2022-10-28T21:15:50.748Z,15.86
2022-10-28T21:18:20.192Z,15.67
2022-10-28T21:20:47.377Z,15.63
2022-10-28T21:23:14.799Z,15.73
2022-10-28T21:25:42.284Z,15.77
2022-10-28T21:28:09.449Z,15.56
2022-10-28T21:30:36.632Z,15.48
2022-10-28T21:33:03.791Z,15.58
2022-10-28T21:35:30.985Z,15.65
2022-10-28T21:37:58.464Z,15.59
2022-10-28T21:40:25.758Z,15.72
2022-10-28T21:42:52.989Z,15.84
2022-10-28T21:45:20.249Z,15.90
2022-10-28T21:47:47.353Z,15.92
2022-10-28T21:50:18.120Z,15.96
2022-10-28T21:52:45.393Z,16.01
2022-10-28T21:55:20.727Z,16.01
2022-10-28T21:57:54.283Z,15.95
2022-10-28T22:00:21.828Z,15.92
2022-10-28T22:02:49.294Z,15.90
2022-10-28T22:05:16.749Z,15.91
2022-10-28T22:07:43.970Z,15.83
2022-10-28T22:10:11.214Z,15.81
2022-10-28T22:12:38.418Z,15.75
2022-10-28T22:15:05.894Z,15.69
2022-10-28T22:17:34.025Z,15.63
2022-10-28T22:20:01.191Z,15.58
2022-10-28T22:22:30.288Z,15.64
2022-10-28T22:24:57.414Z,15.55
2022-10-28T22:27:24.619Z,15.43
2022-10-28T22:29:51.752Z,15.29
2022-10-28T22:32:19.121Z,15.30
2022-10-28T22:34:46.233Z,15.28
2022-10-28T22:37:13.427Z,15.22
2022-10-28T22:39:40.617Z,15.23
2022-10-28T22:42:07.791Z,15.21
2022-10-28T22:44:35.011Z,15.19
2022-10-28T22:47:02.179Z,15.11
2022-10-28T22:49:29.394Z,15.08
2022-10-28T22:51:56.461Z,15.10
2022-10-28T22:54:23.583Z,15.03
2022-10-28T22:56:50.825Z,14.99
2022-10-28T22:59:17.893Z,14.92
2022-10-28T23:01:45.465Z,14.68
2022-10-28T23:04:12.704Z,14.75
2022-10-28T23:06:39.825Z,14.81
2022-10-28T23:09:07.040Z,14.85
2022-10-28T23:11:34.197Z,14.79
2022-10-28T23:14:01.314Z,14.89
2022-10-28T23:16:28.423Z,14.95
2022-10-28T23:18:55.669Z,14.96
2022-10-28T23:21:23.996Z,15.00
2022-10-28T23:23:55.189Z,15.01
2022-10-28T23:26:23.116Z,14.95
2022-10-28T23:28:51.847Z,14.93
2022-10-28T23:31:19.631Z,14.94
2022-10-28T23:33:47.308Z,14.93
2022-10-28T23:36:15.370Z,14.94
2022-10-28T23:38:42.507Z,14.95
2022-10-28T23:41:11.594Z,14.98
2022-10-28T23:43:38.837Z,14.92
2022-10-28T23:46:06.182Z,14.78
2022-10-28T23:48:33.360Z,14.79
2022-10-28T23:51:01.772Z,14.82
2022-10-28T23:53:30.809Z,14.82
2022-10-28T23:55:58.727Z,14.81
2022-10-28T23:58:26.158Z,14.75
